createdAt,value
2017-07-11T00:00:18.851Z,4.70
2017-07-11T00:02:45.751Z,4.57
2017-07-11T00:05:12.762Z,4.20
2017-07-11T00:07:39.724Z,4.90
2017-07-11T00:10:07.051Z,4.30
2017-07-11T00:12:33.973Z,4.70
2017-07-11T00:15:00.857Z,4.70
2017-07-11T00:17:27.813Z,4.03
2017-07-11T00:19:55.154Z,4.30
2017-07-11T00:22:22.149Z,4.30
2017-07-11T00:24:49.666Z,4.13
2017-07-11T00:27:16.615Z,4.47
2017-07-11T00:29:43.567Z,4.43
2017-07-11T00:32:10.918Z,4.57
2017-07-11T00:34:37.872Z,4.80
2017-07-11T00:37:05.232Z,4.47
2017-07-11T00:39:32.157Z,4.37
2017-07-11T00:41:59.051Z,4.40
2017-07-11T00:44:25.935Z,4.63
2017-07-11T00:46:52.863Z,4.20
2017-07-11T00:49:20.143Z,4.07
2017-07-11T00:51:47.058Z,3.97
2017-07-11T00:54:14.368Z,3.97
2017-07-11T00:56:41.247Z,4.20
2017-07-11T00:59:08.205Z,4.40
2017-07-11T01:01:38.727Z,3.97
2017-07-11T01:04:05.615Z,4.63
2017-07-11T01:06:32.537Z,3.80
2017-07-11T01:08:59.879Z,3.93
2017-07-11T01:11:27.162Z,4.70
2017-07-11T01:13:54.090Z,4.07
2017-07-11T01:16:21.435Z,3.67
2017-07-11T01:18:48.386Z,3.60
2017-07-11T01:21:15.302Z,4.00
2017-07-11T01:23:42.274Z,3.87
2017-07-11T01:26:09.217Z,3.57
2017-07-11T01:28:36.137Z,4.37
2017-07-11T01:31:03.357Z,3.47
2017-07-11T01:33:30.283Z,3.57
2017-07-11T01:35:57.563Z,3.60
2017-07-11T01:38:24.453Z,4.13
2017-07-11T01:40:51.382Z,3.80
2017-07-11T01:43:18.279Z,4.03
2017-07-11T01:45:45.159Z,3.83
2017-07-11T01:48:12.084Z,4.13
2017-07-11T01:50:39.005Z,3.60
2017-07-11T01:53:06.282Z,3.80
2017-07-11T01:55:33.214Z,3.80
2017-07-11T01:58:00.106Z,3.60
2017-07-11T02:00:26.994Z,3.77
2017-07-11T02:02:54.317Z,4.00
2017-07-11T02:05:21.203Z,3.00
2017-07-11T02:07:48.094Z,4.40
2017-07-11T02:10:15.588Z,4.03
2017-07-11T02:12:42.870Z,3.63
2017-07-11T02:15:09.758Z,3.43
2017-07-11T02:17:36.738Z,3.90
2017-07-11T02:20:04.103Z,3.50
2017-07-11T02:22:31.378Z,3.73
2017-07-11T02:24:58.294Z,4.03
2017-07-11T02:27:25.574Z,4.43
2017-07-11T02:29:52.766Z,3.90
2017-07-11T02:32:19.743Z,4.47
2017-07-11T02:34:47.043Z,3.53
2017-07-11T02:37:14.047Z,4.23
2017-07-11T02:39:46.822Z,3.20
2017-07-11T02:42:13.754Z,4.30
2017-07-11T02:44:40.719Z,4.10
2017-07-11T02:47:07.676Z,3.77
2017-07-11T02:49:35.018Z,4.50
2017-07-11T02:52:01.910Z,3.83
2017-07-11T02:54:28.911Z,4.50
2017-07-11T02:56:55.799Z,4.80
2017-07-11T02:59:22.677Z,4.60
2017-07-11T03:01:49.594Z,4.50
2017-07-11T03:04:16.499Z,4.33
2017-07-11T03:06:43.949Z,4.90
2017-07-11T03:09:10.840Z,4.70
2017-07-11T03:11:37.746Z,4.97
2017-07-11T03:14:04.667Z,4.30
2017-07-11T03:16:31.884Z,4.60
2017-07-11T03:18:58.797Z,5.00
2017-07-11T03:21:26.089Z,4.80
2017-07-11T03:23:52.995Z,4.27
2017-07-11T03:26:20.348Z,4.60
2017-07-11T03:28:47.234Z,5.13
2017-07-11T03:31:14.117Z,4.87
2017-07-11T03:33:41.031Z,4.20
2017-07-11T03:36:07.947Z,5.40
2017-07-11T03:38:35.802Z,4.63
2017-07-11T03:41:02.699Z,4.33
2017-07-11T03:43:29.590Z,4.80
2017-07-11T03:45:57.399Z,4.03
2017-07-11T03:48:24.283Z,4.20
2017-07-11T03:50:51.167Z,4.47
2017-07-11T03:53:18.482Z,4.53
2017-07-11T03:55:45.362Z,4.70
2017-07-11T03:58:12.243Z,4.30
2017-07-11T04:00:39.682Z,4.97
2017-07-11T04:03:06.560Z,3.97
2017-07-11T04:05:33.449Z,4.80
2017-07-11T04:08:00.772Z,4.73
2017-07-11T04:10:27.661Z,4.20
2017-07-11T04:12:54.942Z,4.60
2017-07-11T04:15:21.866Z,4.33
2017-07-11T04:17:48.789Z,4.43
2017-07-11T04:20:15.679Z,4.20
2017-07-11T04:22:42.681Z,4.37
2017-07-11T04:25:09.634Z,4.20
2017-07-11T04:27:36.987Z,4.47
2017-07-11T04:30:04.311Z,4.00
2017-07-11T04:32:31.191Z,4.37
2017-07-11T04:34:58.510Z,4.80
2017-07-11T04:37:25.398Z,4.33
2017-07-11T04:39:52.739Z,4.37
2017-07-11T04:42:19.621Z,4.60
2017-07-11T04:44:46.529Z,5.20
2017-07-11T04:47:13.450Z,5.43
2017-07-11T04:49:40.339Z,4.60
2017-07-11T04:52:07.230Z,5.70
2017-07-11T04:54:34.214Z,5.67
2017-07-11T04:57:01.504Z,4.50
2017-07-11T04:59:28.413Z,5.73
2017-07-11T05:01:55.362Z,4.50
2017-07-11T05:04:22.284Z,5.00
2017-07-11T05:06:49.260Z,4.63
2017-07-11T05:09:16.171Z,4.80
2017-07-11T05:11:43.222Z,5.10
2017-07-11T05:14:10.146Z,4.80
2017-07-11T05:16:37.092Z,4.70
2017-07-11T05:19:03.978Z,4.87
2017-07-11T05:21:30.881Z,5.30
2017-07-11T05:23:57.797Z,4.90
2017-07-11T05:26:25.076Z,5.50
2017-07-11T05:28:51.958Z,5.57
2017-07-11T05:31:18.874Z,5.10
2017-07-11T05:33:45.800Z,5.00
2017-07-11T05:36:12.682Z,5.30
2017-07-11T05:38:39.572Z,4.90
2017-07-11T05:41:06.923Z,4.20
2017-07-11T05:43:34.274Z,4.00
2017-07-11T05:46:01.604Z,4.00
2017-07-11T05:48:28.537Z,3.23
2017-07-11T05:50:55.542Z,3.70
2017-07-11T05:53:22.819Z,3.20
2017-07-11T05:55:49.862Z,3.37
2017-07-11T05:58:16.770Z,3.30
2017-07-11T06:00:44.045Z,2.87
2017-07-11T06:03:10.986Z,3.27
2017-07-11T06:05:38.266Z,3.07
2017-07-11T06:08:05.157Z,3.27
2017-07-11T06:10:32.069Z,2.77
2017-07-11T06:12:58.965Z,2.93
2017-07-11T06:15:26.245Z,3.07
2017-07-11T06:17:53.182Z,3.50
2017-07-11T06:20:20.110Z,3.00
2017-07-11T06:22:47.643Z,3.23
2017-07-11T06:25:14.540Z,3.70
2017-07-11T06:27:41.462Z,2.70
2017-07-11T06:30:08.749Z,2.53
2017-07-11T06:32:35.691Z,2.90
2017-07-11T06:35:02.574Z,3.20
2017-07-11T06:37:29.459Z,3.13
2017-07-11T06:39:56.843Z,3.30
2017-07-11T06:42:23.730Z,3.03
2017-07-11T06:44:50.621Z,3.20
2017-07-11T06:47:17.538Z,3.27
2017-07-11T06:49:44.459Z,3.20
2017-07-11T06:52:11.343Z,3.57
2017-07-11T06:54:38.623Z,3.60
2017-07-11T06:57:05.550Z,3.30
2017-07-11T06:59:32.842Z,3.33
2017-07-11T07:02:01.802Z,3.27
2017-07-11T07:04:28.685Z,4.00
2017-07-11T07:06:55.571Z,3.60
2017-07-11T07:09:22.898Z,2.90
2017-07-11T07:11:50.064Z,3.20
2017-07-11T07:14:16.945Z,3.03
2017-07-11T07:16:44.284Z,3.60
2017-07-11T07:19:11.197Z,3.20
2017-07-11T07:21:38.083Z,3.13
2017-07-11T07:24:05.002Z,3.33
2017-07-11T07:26:31.903Z,3.40
2017-07-11T07:28:58.892Z,3.30
2017-07-11T07:31:25.802Z,3.33
2017-07-11T07:33:53.082Z,2.93
2017-07-11T07:36:20.106Z,3.20
2017-07-11T07:38:47.455Z,3.57
2017-07-11T07:41:14.345Z,3.00
2017-07-11T07:43:41.270Z,3.40
2017-07-11T07:46:08.149Z,3.30
2017-07-11T07:48:35.143Z,3.67
2017-07-11T07:51:02.501Z,3.57
2017-07-11T07:53:29.850Z,3.40
2017-07-11T07:55:56.798Z,3.17
2017-07-11T07:58:24.154Z,3.87
2017-07-11T08:00:51.038Z,3.00
2017-07-11T08:03:17.923Z,3.10
2017-07-11T08:05:44.894Z,3.00
2017-07-11T08:08:12.176Z,3.00
2017-07-11T08:10:39.076Z,3.13
2017-07-11T08:13:06.038Z,3.80
2017-07-11T08:15:32.923Z,2.80
2017-07-11T08:17:59.802Z,3.47
2017-07-11T08:20:26.774Z,2.80
2017-07-11T08:22:54.050Z,3.30
2017-07-11T08:25:21.406Z,3.37
2017-07-11T08:27:48.741Z,3.10
2017-07-11T08:30:16.193Z,2.90
2017-07-11T08:32:43.143Z,2.70
2017-07-11T08:35:10.399Z,3.33
2017-07-11T08:37:37.280Z,3.33
2017-07-11T08:40:04.251Z,3.10
2017-07-11T08:42:31.171Z,3.27
2017-07-11T08:44:58.138Z,3.40
2017-07-11T08:47:25.103Z,3.00
2017-07-11T08:49:52.451Z,3.20
2017-07-11T08:52:19.396Z,3.20
2017-07-11T08:54:46.338Z,3.30
2017-07-11T08:57:13.286Z,3.60
2017-07-11T08:59:40.162Z,3.07
2017-07-11T09:02:07.082Z,3.10
2017-07-11T09:04:34.436Z,3.70
2017-07-11T09:07:01.322Z,3.70
2017-07-11T09:09:28.222Z,3.13
2017-07-11T09:11:55.179Z,3.10
2017-07-11T09:14:22.456Z,3.30
2017-07-11T09:16:49.477Z,3.30
2017-07-11T09:19:16.830Z,3.40
2017-07-11T09:21:44.206Z,3.10
2017-07-11T09:24:11.526Z,3.00
2017-07-11T09:26:38.486Z,3.13
2017-07-11T09:29:05.838Z,2.90
2017-07-11T09:31:32.790Z,3.30
2017-07-11T09:34:00.152Z,3.27
2017-07-11T09:36:27.511Z,3.40
2017-07-11T09:38:54.443Z,3.17
2017-07-11T09:41:21.323Z,2.97
2017-07-11T09:43:48.217Z,3.00
2017-07-11T09:46:15.205Z,3.00
2017-07-11T09:48:42.494Z,3.00
2017-07-11T09:51:09.409Z,2.77
2017-07-11T09:53:36.299Z,3.20
2017-07-11T09:56:03.269Z,3.57
2017-07-11T09:58:30.224Z,2.67
2017-07-11T10:00:57.175Z,3.37
2017-07-11T10:03:24.535Z,2.80
2017-07-11T10:05:51.823Z,2.33
2017-07-11T10:08:18.769Z,2.70
2017-07-11T10:10:45.779Z,2.70
2017-07-11T10:13:13.068Z,2.80
2017-07-11T10:15:39.958Z,3.10
2017-07-11T10:18:06.874Z,2.80
2017-07-11T10:20:33.870Z,3.07
2017-07-11T10:23:00.750Z,2.57
2017-07-11T10:25:27.762Z,2.80
2017-07-11T10:27:54.703Z,2.63
2017-07-11T10:30:21.694Z,3.10
2017-07-11T10:32:48.594Z,2.60
2017-07-11T10:35:15.550Z,3.10
2017-07-11T10:37:42.899Z,3.03
2017-07-11T10:40:10.299Z,2.90
2017-07-11T10:42:37.236Z,3.03
2017-07-11T10:45:04.246Z,2.53
2017-07-11T10:47:31.219Z,2.60
2017-07-11T10:49:58.603Z,2.47
2017-07-11T10:52:25.606Z,2.57
2017-07-11T10:54:52.484Z,2.73
2017-07-11T10:57:19.398Z,2.57
2017-07-11T10:59:46.342Z,2.73
2017-07-11T11:02:13.290Z,3.00
2017-07-11T11:04:40.179Z,2.60
2017-07-11T11:07:07.599Z,2.80
2017-07-11T11:09:34.897Z,2.60
2017-07-11T11:12:01.834Z,3.10
2017-07-11T11:14:28.836Z,2.73
2017-07-11T11:16:55.790Z,2.33
2017-07-11T11:19:23.139Z,2.60
2017-07-11T11:21:50.091Z,3.10
2017-07-11T11:24:17.034Z,2.70
2017-07-11T11:26:43.986Z,2.40
2017-07-11T11:29:11.377Z,2.73
2017-07-11T11:31:38.262Z,2.40
2017-07-11T11:34:05.146Z,2.50
2017-07-11T11:36:32.587Z,2.50
2017-07-11T11:38:59.586Z,2.50
2017-07-11T11:41:26.826Z,2.63
2017-07-11T11:43:53.741Z,2.67
2017-07-11T11:46:21.022Z,2.77
2017-07-11T11:48:48.289Z,2.80
2017-07-11T11:51:15.598Z,2.80
2017-07-11T11:53:42.574Z,2.97
2017-07-11T11:56:09.937Z,3.13
2017-07-11T11:58:36.887Z,2.80
2017-07-11T12:01:03.825Z,2.80
2017-07-11T12:03:30.773Z,2.87
2017-07-11T12:05:58.236Z,2.40
2017-07-11T12:08:25.595Z,2.90
2017-07-11T12:10:52.529Z,2.33
2017-07-11T12:13:19.409Z,2.77
2017-07-11T12:15:46.322Z,2.47
2017-07-11T12:18:13.251Z,2.47
2017-07-11T12:20:40.222Z,2.60
2017-07-11T12:23:07.109Z,2.67
2017-07-11T12:25:34.013Z,2.40
2017-07-11T12:28:01.306Z,2.63
2017-07-11T12:30:28.311Z,2.60
2017-07-11T12:32:55.269Z,2.60
2017-07-11T12:35:22.630Z,2.43
2017-07-11T12:37:49.947Z,2.70
2017-07-11T12:40:16.838Z,2.10
2017-07-11T12:42:43.816Z,2.13
2017-07-11T12:45:11.193Z,2.57
2017-07-11T12:47:38.082Z,2.50
2017-07-11T12:50:05.059Z,2.90
2017-07-11T12:52:32.011Z,2.40
2017-07-11T12:54:58.954Z,3.17
2017-07-11T12:57:25.902Z,2.37
2017-07-11T12:59:52.850Z,2.77
2017-07-11T13:02:19.750Z,2.70
2017-07-11T13:04:46.746Z,2.47
2017-07-11T13:07:14.138Z,2.90
2017-07-11T13:09:41.027Z,2.40
2017-07-11T13:12:07.987Z,2.70
2017-07-11T13:14:34.875Z,3.23
2017-07-11T13:17:01.759Z,2.50
2017-07-11T13:19:28.724Z,2.40
2017-07-11T13:21:55.671Z,2.53
2017-07-11T13:24:22.618Z,2.70
2017-07-11T13:26:49.570Z,2.50
2017-07-11T13:29:16.926Z,2.00
2017-07-11T13:31:43.821Z,2.50
2017-07-11T13:34:10.713Z,1.90
2017-07-11T13:36:37.624Z,2.10
2017-07-11T13:39:04.507Z,2.50
2017-07-11T13:41:31.419Z,2.60
2017-07-11T13:43:58.439Z,2.60
2017-07-11T13:46:25.322Z,2.50
2017-07-11T13:48:52.205Z,2.30
2017-07-11T13:51:19.558Z,2.63
2017-07-11T13:53:46.899Z,2.30
2017-07-11T13:56:13.841Z,3.27
2017-07-11T13:58:40.795Z,2.40
2017-07-11T14:01:07.743Z,2.60
2017-07-11T14:03:35.022Z,2.87
2017-07-11T14:06:01.938Z,2.70
2017-07-11T14:08:28.884Z,2.50
2017-07-11T14:10:55.873Z,2.67
2017-07-11T14:13:22.786Z,2.40
2017-07-11T14:15:50.137Z,3.20
2017-07-11T14:18:17.503Z,2.83
2017-07-11T14:20:44.853Z,2.47
2017-07-11T14:23:12.130Z,2.67
2017-07-11T14:25:39.143Z,2.60
2017-07-11T14:28:06.025Z,2.80
2017-07-11T14:30:32.946Z,2.10
2017-07-11T14:33:00.221Z,2.40
2017-07-11T14:35:27.122Z,2.43
2017-07-11T14:37:54.094Z,2.20
2017-07-11T14:40:21.441Z,2.00
2017-07-11T14:42:48.802Z,2.00
2017-07-11T14:45:16.158Z,2.60
2017-07-11T14:47:43.438Z,2.30
2017-07-11T14:50:10.446Z,2.20
2017-07-11T14:52:37.326Z,2.20
2017-07-11T14:55:04.251Z,2.00
2017-07-11T14:57:31.603Z,1.60
2017-07-11T14:59:58.554Z,1.83
2017-07-11T15:02:25.902Z,1.70
2017-07-11T15:04:52.850Z,1.50
2017-07-11T15:07:23.161Z,1.63
2017-07-11T15:09:50.100Z,2.13
2017-07-11T15:12:17.063Z,2.00
2017-07-11T15:14:44.057Z,1.80
2017-07-11T15:17:10.958Z,1.90
2017-07-11T15:19:37.842Z,2.00
2017-07-11T15:22:04.865Z,2.00
2017-07-11T15:24:32.148Z,1.70
2017-07-11T15:26:59.062Z,1.87
2017-07-11T15:29:28.974Z,1.80
2017-07-11T15:31:56.430Z,1.60
2017-07-11T15:34:23.710Z,2.00
2017-07-11T15:36:50.636Z,1.90
2017-07-11T15:39:17.962Z,2.23
2017-07-11T15:41:44.837Z,1.90
2017-07-11T15:44:12.119Z,1.50
2017-07-11T15:46:39.030Z,1.47
2017-07-11T15:49:05.919Z,1.80
2017-07-11T15:51:32.923Z,2.30
2017-07-11T15:53:59.869Z,1.83
2017-07-11T15:56:26.782Z,1.90
2017-07-11T15:58:53.763Z,1.90
2017-07-11T16:01:20.669Z,1.60
2017-07-11T16:03:47.655Z,2.20
2017-07-11T16:06:14.539Z,2.20
2017-07-11T16:08:41.489Z,1.87
2017-07-11T16:11:08.433Z,2.30
2017-07-11T16:13:35.335Z,1.93
2017-07-11T16:16:02.298Z,2.57
2017-07-11T16:18:29.582Z,2.60
2017-07-11T16:20:56.465Z,2.57
2017-07-11T16:23:23.385Z,2.50
2017-07-11T16:25:50.417Z,2.20
2017-07-11T16:28:17.299Z,2.77
2017-07-11T16:30:44.275Z,2.90
2017-07-11T16:33:11.551Z,2.80
2017-07-11T16:35:38.466Z,2.90
2017-07-11T16:38:05.379Z,2.67
2017-07-11T16:40:32.363Z,2.40
2017-07-11T16:42:59.311Z,2.60
2017-07-11T16:45:26.200Z,3.17
2017-07-11T16:47:53.173Z,3.23
2017-07-11T16:50:20.066Z,2.90
2017-07-11T16:52:47.445Z,3.07
2017-07-11T16:55:14.358Z,3.07
2017-07-11T16:57:41.639Z,2.60
2017-07-11T17:00:08.529Z,3.17
2017-07-11T17:02:35.448Z,3.10
2017-07-11T17:05:02.333Z,3.00
2017-07-11T17:07:29.328Z,3.30
2017-07-11T17:09:56.204Z,3.00
2017-07-11T17:12:23.139Z,3.30
2017-07-11T17:14:50.070Z,2.80
2017-07-11T17:17:16.961Z,2.80
2017-07-11T17:19:43.919Z,3.30
2017-07-11T17:22:11.197Z,3.33
2017-07-11T17:24:38.115Z,3.60
2017-07-11T17:27:05.575Z,3.30
2017-07-11T17:29:32.518Z,3.10
2017-07-11T17:31:59.470Z,3.73
2017-07-11T17:34:26.826Z,3.03
2017-07-11T17:36:54.107Z,3.27
2017-07-11T17:39:21.018Z,2.97
2017-07-11T17:41:47.942Z,3.40
2017-07-11T17:44:14.918Z,2.97
2017-07-11T17:46:42.258Z,2.60
2017-07-11T17:49:09.595Z,3.10
2017-07-11T17:51:36.507Z,3.10
2017-07-11T17:54:03.414Z,3.27
2017-07-11T17:56:30.334Z,2.97
2017-07-11T17:58:57.218Z,3.17
2017-07-11T18:01:24.566Z,2.80
2017-07-11T18:03:51.514Z,3.03
2017-07-11T18:06:18.866Z,3.30
2017-07-11T18:08:45.865Z,3.47
2017-07-11T18:11:12.858Z,3.07
2017-07-11T18:13:39.737Z,2.83
2017-07-11T18:16:06.626Z,3.10
2017-07-11T18:18:33.598Z,3.37
2017-07-11T18:21:00.559Z,2.93
2017-07-11T18:23:27.908Z,2.90
2017-07-11T18:25:55.253Z,3.27
2017-07-11T18:28:22.210Z,3.37
2017-07-11T18:30:49.564Z,3.40
2017-07-11T18:33:16.958Z,3.53
2017-07-11T18:35:43.867Z,3.30
2017-07-11T18:38:11.182Z,3.87
2017-07-11T18:40:38.171Z,3.50
2017-07-11T18:43:05.477Z,3.90
2017-07-11T18:45:32.471Z,4.30
2017-07-11T18:47:59.423Z,3.40
2017-07-11T18:50:26.874Z,3.80
2017-07-11T18:52:53.818Z,3.77
2017-07-11T18:55:20.770Z,3.70
2017-07-11T18:57:48.123Z,4.50
2017-07-11T19:00:15.076Z,3.93
2017-07-11T19:02:42.428Z,4.00
2017-07-11T19:05:09.756Z,4.20
2017-07-11T19:07:36.730Z,3.90
2017-07-11T19:10:04.087Z,3.50
2017-07-11T19:12:31.484Z,3.97
2017-07-11T19:14:58.386Z,3.57
2017-07-11T19:17:25.315Z,3.97
2017-07-11T19:19:52.273Z,3.90
2017-07-11T19:22:19.162Z,3.70
2017-07-11T19:24:46.087Z,3.37
2017-07-11T19:27:13.426Z,3.70
2017-07-11T19:29:40.370Z,3.50
2017-07-11T19:32:07.317Z,3.30
2017-07-11T19:34:34.198Z,3.80
2017-07-11T19:37:01.110Z,3.50
2017-07-11T19:39:28.466Z,3.80
2017-07-11T19:41:55.758Z,3.40
2017-07-11T19:44:22.757Z,3.90
2017-07-11T19:46:49.724Z,3.13
2017-07-11T19:49:17.046Z,3.10
2017-07-11T19:51:43.930Z,3.50
2017-07-11T19:54:11.213Z,2.90
2017-07-11T19:56:38.231Z,2.77
2017-07-11T19:59:05.573Z,4.07
2017-07-11T20:01:32.948Z,3.67
2017-07-11T20:04:00.294Z,3.80
2017-07-11T20:06:27.578Z,3.00
2017-07-11T20:08:54.466Z,3.67
2017-07-11T20:11:21.388Z,3.60
2017-07-11T20:13:48.273Z,3.77
2017-07-11T20:16:15.222Z,3.73
2017-07-11T20:18:42.155Z,4.20
2017-07-11T20:21:09.039Z,3.70
2017-07-11T20:23:35.958Z,3.57
2017-07-11T20:26:02.905Z,3.70
2017-07-11T20:28:29.854Z,3.87
2017-07-11T20:30:56.803Z,3.63
2017-07-11T20:33:24.333Z,4.63
2017-07-11T20:35:51.306Z,3.50
2017-07-11T20:38:18.255Z,4.10
2017-07-11T20:40:45.150Z,4.10
2017-07-11T20:43:12.142Z,4.17
2017-07-11T20:45:39.022Z,4.07
2017-07-11T20:48:05.909Z,3.90
2017-07-11T20:50:32.895Z,3.73
2017-07-11T20:53:00.246Z,3.80
2017-07-11T20:55:27.610Z,4.17
2017-07-11T20:57:54.951Z,4.17
2017-07-11T21:00:21.840Z,4.07
2017-07-11T21:02:48.757Z,4.10
2017-07-11T21:05:16.047Z,5.20
2017-07-11T21:07:42.933Z,4.40
2017-07-11T21:10:09.886Z,4.30
2017-07-11T21:12:36.840Z,4.47
2017-07-11T21:15:04.109Z,4.27
2017-07-11T21:17:31.036Z,4.47
2017-07-11T21:19:58.319Z,4.40
2017-07-11T21:22:25.201Z,4.00
2017-07-11T21:24:52.174Z,3.60
2017-07-11T21:27:19.135Z,4.23
2017-07-11T21:29:46.419Z,4.53
2017-07-11T21:32:13.360Z,4.70
2017-07-11T21:34:40.242Z,3.90
2017-07-11T21:37:07.214Z,4.17
2017-07-11T21:39:34.155Z,4.10
2017-07-11T21:42:01.139Z,4.70
2017-07-11T21:44:28.061Z,4.50
2017-07-11T21:46:54.979Z,4.40
2017-07-11T21:49:21.863Z,3.90
2017-07-11T21:51:48.834Z,4.67
2017-07-11T21:54:15.784Z,4.57
2017-07-11T21:56:43.548Z,4.17
2017-07-11T21:59:10.494Z,4.10
2017-07-11T22:01:37.439Z,5.27
2017-07-11T22:04:04.386Z,5.17
2017-07-11T22:06:31.634Z,4.83
2017-07-11T22:08:58.582Z,4.77
2017-07-11T22:11:25.534Z,5.03
2017-07-11T22:13:52.479Z,4.60
2017-07-11T22:16:19.465Z,5.40
2017-07-11T22:18:46.384Z,5.20
2017-07-11T22:21:13.270Z,4.60
2017-07-11T22:23:40.150Z,4.80
2017-07-11T22:26:07.502Z,4.83
2017-07-11T22:28:34.452Z,5.10
2017-07-11T22:31:01.336Z,5.83
2017-07-11T22:33:28.240Z,5.67
2017-07-11T22:35:55.181Z,5.73
2017-07-11T22:38:22.134Z,6.27
2017-07-11T22:40:49.030Z,6.60
2017-07-11T22:43:15.995Z,6.30
2017-07-11T22:45:42.880Z,6.63
2017-07-11T22:48:09.773Z,5.93
2017-07-11T22:50:36.734Z,4.43
2017-07-11T22:53:03.686Z,4.70
2017-07-11T22:55:30.630Z,5.00
2017-07-11T22:57:57.575Z,4.80
2017-07-11T23:00:24.455Z,6.07
2017-07-11T23:02:51.370Z,5.60
2017-07-11T23:05:18.678Z,5.07
2017-07-11T23:07:45.578Z,4.90
2017-07-11T23:10:12.543Z,5.97
2017-07-11T23:12:39.594Z,4.93
2017-07-11T23:15:06.484Z,5.27
2017-07-11T23:17:33.481Z,5.50
2017-07-11T23:20:00.430Z,5.30
2017-07-11T23:22:27.384Z,5.20
2017-07-11T23:24:54.730Z,4.93
2017-07-11T23:27:21.686Z,4.40
2017-07-11T23:29:49.035Z,4.50
2017-07-11T23:32:15.982Z,4.73
2017-07-11T23:34:42.978Z,3.93
2017-07-11T23:37:10.033Z,4.10
2017-07-11T23:39:37.434Z,4.50
2017-07-11T23:42:04.382Z,4.20
2017-07-11T23:44:31.330Z,4.00
2017-07-11T23:46:58.278Z,4.40
2017-07-11T23:49:25.643Z,4.30
2017-07-11T23:51:52.986Z,4.00
2017-07-11T23:54:19.934Z,4.20
2017-07-11T23:56:46.886Z,4.17
2017-07-11T23:59:14.161Z,4.40
